Neerijnen, Netherlands
Current Conditions -  °F | °C
As of 9:25 PM on Sunday 25 Jan 2015 (Local Time) from EHVK Reporting Station
Light Rain Light Rain  
Wind Chill: 31°   Ceiling: 400
Heat Index: 37°   Visibility: 1.8mi
Dew Point: 37°   Wind: 8mph
Humidity: 100%   Direction: 200°SSW
Pressure: 30.33"   Gusts: NA
Location:  51.83°N, 5.28°E
Report Text: EHVK 252025Z AUTO 20007KT 3000 -RADZ SCT003 BKN004 OVC021 03/03 Q1027 YLO
Loading
Personal Weather Stations






























Interactive Weather Map New forecast layout! Learn more

10-Day Weather Forecast

Advertisements
Track Severe Weather on mobile